< < Back
Terminal Aerodrome Forecast


Current Version              Previous Versions:   1  2  3  4  5  6  7  8  9  

Terminal Aerodrome Forecast

292
FTUS44 KBMX 071120
TAFBHM
TAF
KBHM 071120Z 0712/0812 33003KT P6SM SKC
     FM071700 28007KT P6SM SCT250
     FM080600 22004KT P6SM BKN050 BKN150=

Latest METAR

970
SAUS70 KWBC 071500 RRD
MTRBHM
METAR KBHM 071453Z 00000KT 10SM CLR 04/M04 A3027 RMK AO2 SLP252
T00391039 50004


USA.gov is the U.S. government's official web portal to all federal, state and local government web resources and services.